sensor_id;sensor_type;location;lat;lon;timestamp;P1;durP1;ratioP1;P2;durP2;ratioP2
32705;SDS011;19094;50.972;3.538;2023-05-18T00:01:46;14.80;;;4.43;;
32705;SDS011;19094;50.972;3.538;2023-05-18T00:04:12;14.93;;;3.72;;
32705;SDS011;19094;50.972;3.538;2023-05-18T00:06:38;22.65;;;5.07;;
32705;SDS011;19094;50.972;3.538;2023-05-18T00:09:03;26.20;;;4.95;;
32705;SDS011;19094;50.972;3.538;2023-05-18T00:11:29;14.35;;;4.53;;
32705;SDS011;19094;50.972;3.538;2023-05-18T00:13:55;16.40;;;4.35;;
32705;SDS011;19094;50.972;3.538;2023-05-18T00:16:21;15.90;;;4.32;;
32705;SDS011;19094;50.972;3.538;2023-05-18T00:18:46;16.95;;;4.72;;
32705;SDS011;19094;50.972;3.538;2023-05-18T00:21:12;15.00;;;4.43;;
32705;SDS011;19094;50.972;3.538;2023-05-18T00:23:40;23.17;;;4.95;;
32705;SDS011;19094;50.972;3.538;2023-05-18T00:26:06;12.48;;;4.45;;
32705;SDS011;19094;50.972;3.538;2023-05-18T00:28:32;17.00;;;5.10;;
32705;SDS011;19094;50.972;3.538;2023-05-18T00:30:58;20.80;;;4.90;;
32705;SDS011;19094;50.972;3.538;2023-05-18T00:33:24;17.80;;;5.15;;
32705;SDS011;19094;50.972;3.538;2023-05-18T00:35:49;18.15;;;5.05;;
32705;SDS011;19094;50.972;3.538;2023-05-18T00:38:15;14.60;;;4.72;;
32705;SDS011;19094;50.972;3.538;2023-05-18T00:40:41;11.07;;;4.50;;
32705;SDS011;19094;50.972;3.538;2023-05-18T00:43:08;19.35;;;4.75;;
32705;SDS011;19094;50.972;3.538;2023-05-18T00:45:34;19.27;;;5.10;;
32705;SDS011;19094;50.972;3.538;2023-05-18T00:47:59;15.88;;;4.57;;
32705;SDS011;19094;50.972;3.538;2023-05-18T00:50:25;19.55;;;4.60;;
32705;SDS011;19094;50.972;3.538;2023-05-18T00:52:51;13.68;;;4.65;;
32705;SDS011;19094;50.972;3.538;2023-05-18T00:55:17;26.30;;;5.05;;
32705;SDS011;19094;50.972;3.538;2023-05-18T00:57:44;12.35;;;5.10;;
32705;SDS011;19094;50.972;3.538;2023-05-18T01:00:12;14.60;;;5.63;;
32705;SDS011;19094;50.972;3.538;2023-05-18T01:02:39;16.90;;;5.55;;
32705;SDS011;19094;50.972;3.538;2023-05-18T01:05:10;25.50;;;6.00;;
32705;SDS011;19094;50.972;3.538;2023-05-18T01:07:39;16.17;;;5.35;;
32705;SDS011;19094;50.972;3.538;2023-05-18T01:10:09;16.98;;;5.40;;
32705;SDS011;19094;50.972;3.538;2023-05-18T01:12:40;18.48;;;6.15;;
32705;SDS011;19094;50.972;3.538;2023-05-18T01:15:13;23.40;;;6.22;;
32705;SDS011;19094;50.972;3.538;2023-05-18T01:17:50;24.70;;;5.22;;
32705;SDS011;19094;50.972;3.538;2023-05-18T01:26:20;16.65;;;5.38;;
32705;SDS011;19094;50.972;3.538;2023-05-18T01:28:48;18.05;;;5.65;;
32705;SDS011;19094;50.972;3.538;2023-05-18T01:31:15;20.42;;;6.53;;
32705;SDS011;19094;50.972;3.538;2023-05-18T01:33:41;15.00;;;5.57;;
32705;SDS011;19094;50.972;3.538;2023-05-18T01:36:08;18.33;;;6.22;;
32705;SDS011;19094;50.972;3.538;2023-05-18T01:38:35;16.90;;;5.20;;
32705;SDS011;19094;50.972;3.538;2023-05-18T01:43:35;17.70;;;6.10;;
32705;SDS011;19094;50.972;3.538;2023-05-18T01:46:13;12.95;;;5.63;;
32705;SDS011;19094;50.972;3.538;2023-05-18T01:48:47;21.60;;;5.90;;
32705;SDS011;19094;50.972;3.538;2023-05-18T01:51:18;18.65;;;6.18;;
32705;SDS011;19094;50.972;3.538;2023-05-18T01:53:57;17.17;;;5.95;;
32705;SDS011;19094;50.972;3.538;2023-05-18T01:56:29;18.45;;;5.93;;
32705;SDS011;19094;50.972;3.538;2023-05-18T01:58:57;19.92;;;6.00;;
32705;SDS011;19094;50.972;3.538;2023-05-18T02:01:23;16.98;;;5.90;;
32705;SDS011;19094;50.972;3.538;2023-05-18T02:03:49;18.23;;;5.95;;
32705;SDS011;19094;50.972;3.538;2023-05-18T02:06:15;13.32;;;5.18;;
32705;SDS011;19094;50.972;3.538;2023-05-18T02:08:41;18.52;;;5.78;;
32705;SDS011;19094;50.972;3.538;2023-05-18T02:11:07;19.92;;;6.20;;
32705;SDS011;19094;50.972;3.538;2023-05-18T02:13:33;20.58;;;6.03;;
32705;SDS011;19094;50.972;3.538;2023-05-18T02:15:58;18.88;;;5.07;;
32705;SDS011;19094;50.972;3.538;2023-05-18T02:18:24;13.70;;;5.57;;
32705;SDS011;19094;50.972;3.538;2023-05-18T02:20:59;17.02;;;5.78;;
32705;SDS011;19094;50.972;3.538;2023-05-18T02:23:25;21.38;;;6.03;;
32705;SDS011;19094;50.972;3.538;2023-05-18T02:25:51;19.05;;;5.57;;
32705;SDS011;19094;50.972;3.538;2023-05-18T02:28:20;15.38;;;5.88;;
32705;SDS011;19094;50.972;3.538;2023-05-18T02:30:46;11.55;;;5.38;;
32705;SDS011;19094;50.972;3.538;2023-05-18T02:33:12;17.50;;;5.78;;
32705;SDS011;19094;50.972;3.538;2023-05-18T02:35:38;18.92;;;6.15;;
32705;SDS011;19094;50.972;3.538;2023-05-18T02:38:05;13.60;;;5.50;;
32705;SDS011;19094;50.972;3.538;2023-05-18T02:40:31;20.27;;;6.10;;
32705;SDS011;19094;50.972;3.538;2023-05-18T02:42:57;24.20;;;6.93;;
32705;SDS011;19094;50.972;3.538;2023-05-18T02:45:22;15.50;;;5.95;;
32705;SDS011;19094;50.972;3.538;2023-05-18T02:47:48;16.20;;;5.85;;
32705;SDS011;19094;50.972;3.538;2023-05-18T02:50:13;21.95;;;5.93;;
32705;SDS011;19094;50.972;3.538;2023-05-18T02:52:39;20.63;;;5.18;;
32705;SDS011;19094;50.972;3.538;2023-05-18T02:55:05;17.00;;;5.88;;
32705;SDS011;19094;50.972;3.538;2023-05-18T02:57:31;13.02;;;5.57;;
32705;SDS011;19094;50.972;3.538;2023-05-18T02:59:57;18.83;;;5.85;;
32705;SDS011;19094;50.972;3.538;2023-05-18T03:02:23;15.05;;;5.53;;
32705;SDS011;19094;50.972;3.538;2023-05-18T03:04:49;16.20;;;5.45;;
32705;SDS011;19094;50.972;3.538;2023-05-18T03:07:19;15.07;;;6.65;;
32705;SDS011;19094;50.972;3.538;2023-05-18T03:09:45;11.88;;;5.50;;
32705;SDS011;19094;50.972;3.538;2023-05-18T03:12:10;16.05;;;5.43;;
32705;SDS011;19094;50.972;3.538;2023-05-18T03:14:37;14.82;;;5.30;;
32705;SDS011;19094;50.972;3.538;2023-05-18T03:17:02;12.48;;;5.50;;
32705;SDS011;19094;50.972;3.538;2023-05-18T03:19:30;18.65;;;5.13;;
32705;SDS011;19094;50.972;3.538;2023-05-18T03:21:56;13.48;;;5.65;;
32705;SDS011;19094;50.972;3.538;2023-05-18T03:24:22;11.60;;;5.68;;
32705;SDS011;19094;50.972;3.538;2023-05-18T03:26:50;16.42;;;5.57;;
32705;SDS011;19094;50.972;3.538;2023-05-18T03:29:19;19.92;;;6.65;;
32705;SDS011;19094;50.972;3.538;2023-05-18T03:31:45;20.05;;;5.25;;
32705;SDS011;19094;50.972;3.538;2023-05-18T03:34:11;13.57;;;5.53;;
32705;SDS011;19094;50.972;3.538;2023-05-18T03:36:37;13.48;;;5.50;;
32705;SDS011;19094;50.972;3.538;2023-05-18T03:39:05;20.20;;;5.75;;
32705;SDS011;19094;50.972;3.538;2023-05-18T03:41:31;15.05;;;5.18;;
32705;SDS011;19094;50.972;3.538;2023-05-18T03:43:57;20.45;;;5.32;;
32705;SDS011;19094;50.972;3.538;2023-05-18T03:46:23;16.58;;;5.28;;
32705;SDS011;19094;50.972;3.538;2023-05-18T03:48:49;14.27;;;5.13;;
32705;SDS011;19094;50.972;3.538;2023-05-18T03:51:15;16.50;;;5.35;;
32705;SDS011;19094;50.972;3.538;2023-05-18T03:53:40;16.20;;;5.00;;
32705;SDS011;19094;50.972;3.538;2023-05-18T03:56:06;15.90;;;5.43;;
32705;SDS011;19094;50.972;3.538;2023-05-18T03:58:32;16.80;;;5.60;;
32705;SDS011;19094;50.972;3.538;2023-05-18T04:00:59;9.93;;;4.60;;
32705;SDS011;19094;50.972;3.538;2023-05-18T04:03:25;13.85;;;4.65;;
32705;SDS011;19094;50.972;3.538;2023-05-18T04:05:51;12.60;;;4.70;;
32705;SDS011;19094;50.972;3.538;2023-05-18T04:08:17;16.08;;;6.07;;
32705;SDS011;19094;50.972;3.538;2023-05-18T04:10:44;15.35;;;5.18;;
32705;SDS011;19094;50.972;3.538;2023-05-18T04:13:10;18.75;;;4.88;;
32705;SDS011;19094;50.972;3.538;2023-05-18T04:15:36;13.73;;;4.93;;
32705;SDS011;19094;50.972;3.538;2023-05-18T04:18:02;17.05;;;5.20;;
32705;SDS011;19094;50.972;3.538;2023-05-18T04:20:28;12.35;;;4.57;;
32705;SDS011;19094;50.972;3.538;2023-05-18T04:22:54;24.73;;;7.15;;
32705;SDS011;19094;50.972;3.538;2023-05-18T04:25:21;11.50;;;5.07;;
32705;SDS011;19094;50.972;3.538;2023-05-18T04:27:51;14.05;;;5.07;;
32705;SDS011;19094;50.972;3.538;2023-05-18T04:30:18;15.00;;;4.63;;
32705;SDS011;19094;50.972;3.538;2023-05-18T04:32:47;10.57;;;4.50;;
32705;SDS011;19094;50.972;3.538;2023-05-18T04:35:14;12.65;;;4.93;;
32705;SDS011;19094;50.972;3.538;2023-05-18T04:37:40;15.35;;;4.60;;
32705;SDS011;19094;50.972;3.538;2023-05-18T04:40:10;16.75;;;5.35;;
32705;SDS011;19094;50.972;3.538;2023-05-18T04:42:41;12.15;;;4.35;;
32705;SDS011;19094;50.972;3.538;2023-05-18T04:45:18;21.13;;;5.00;;
32705;SDS011;19094;50.972;3.538;2023-05-18T04:47:45;15.20;;;4.38;;
32705;SDS011;19094;50.972;3.538;2023-05-18T04:50:12;14.68;;;5.50;;
32705;SDS011;19094;50.972;3.538;2023-05-18T04:52:39;17.67;;;4.80;;
32705;SDS011;19094;50.972;3.538;2023-05-18T04:55:11;12.43;;;5.40;;
32705;SDS011;19094;50.972;3.538;2023-05-18T04:57:38;9.90;;;5.10;;
32705;SDS011;19094;50.972;3.538;2023-05-18T05:00:04;14.85;;;4.78;;
32705;SDS011;19094;50.972;3.538;2023-05-18T05:02:30;11.45;;;4.40;;
32705;SDS011;19094;50.972;3.538;2023-05-18T05:04:56;14.68;;;4.78;;
32705;SDS011;19094;50.972;3.538;2023-05-18T05:07:21;10.85;;;5.10;;
32705;SDS011;19094;50.972;3.538;2023-05-18T05:09:47;10.18;;;4.47;;
32705;SDS011;19094;50.972;3.538;2023-05-18T05:12:12;22.23;;;4.70;;
32705;SDS011;19094;50.972;3.538;2023-05-18T05:14:38;12.57;;;4.90;;
32705;SDS011;19094;50.972;3.538;2023-05-18T05:17:04;14.70;;;4.82;;
32705;SDS011;19094;50.972;3.538;2023-05-18T05:19:29;17.05;;;5.10;;
32705;SDS011;19094;50.972;3.538;2023-05-18T05:21:55;22.73;;;5.70;;
32705;SDS011;19094;50.972;3.538;2023-05-18T05:24:20;13.05;;;4.40;;
32705;SDS011;19094;50.972;3.538;2023-05-18T05:26:46;18.08;;;5.15;;
32705;SDS011;19094;50.972;3.538;2023-05-18T05:29:12;15.23;;;4.65;;
32705;SDS011;19094;50.972;3.538;2023-05-18T05:31:37;17.42;;;5.40;;
32705;SDS011;19094;50.972;3.538;2023-05-18T05:34:03;13.80;;;4.40;;
32705;SDS011;19094;50.972;3.538;2023-05-18T05:36:28;20.63;;;4.95;;
32705;SDS011;19094;50.972;3.538;2023-05-18T05:38:55;13.25;;;4.55;;
32705;SDS011;19094;50.972;3.538;2023-05-18T05:41:21;17.13;;;5.45;;
32705;SDS011;19094;50.972;3.538;2023-05-18T05:43:47;17.70;;;5.15;;
32705;SDS011;19094;50.972;3.538;2023-05-18T05:46:12;11.35;;;4.43;;
32705;SDS011;19094;50.972;3.538;2023-05-18T05:48:38;13.57;;;4.65;;
32705;SDS011;19094;50.972;3.538;2023-05-18T05:51:03;15.23;;;4.43;;
32705;SDS011;19094;50.972;3.538;2023-05-18T05:53:29;20.30;;;5.45;;
32705;SDS011;19094;50.972;3.538;2023-05-18T05:55:56;21.95;;;5.43;;
32705;SDS011;19094;50.972;3.538;2023-05-18T05:58:22;18.90;;;4.93;;
32705;SDS011;19094;50.972;3.538;2023-05-18T06:00:47;15.93;;;4.95;;
32705;SDS011;19094;50.972;3.538;2023-05-18T06:03:13;13.00;;;4.88;;
32705;SDS011;19094;50.972;3.538;2023-05-18T06:05:39;11.52;;;4.60;;
32705;SDS011;19094;50.972;3.538;2023-05-18T06:08:04;14.50;;;4.80;;
32705;SDS011;19094;50.972;3.538;2023-05-18T06:10:30;11.30;;;4.13;;
32705;SDS011;19094;50.972;3.538;2023-05-18T06:12:55;17.08;;;4.78;;
32705;SDS011;19094;50.972;3.538;2023-05-18T06:15:21;15.48;;;4.53;;
32705;SDS011;19094;50.972;3.538;2023-05-18T06:17:47;15.38;;;5.40;;
32705;SDS011;19094;50.972;3.538;2023-05-18T06:20:12;17.17;;;5.25;;
32705;SDS011;19094;50.972;3.538;2023-05-18T06:22:38;17.20;;;4.63;;
32705;SDS011;19094;50.972;3.538;2023-05-18T06:25:04;15.02;;;5.07;;
32705;SDS011;19094;50.972;3.538;2023-05-18T06:27:30;12.93;;;5.20;;
32705;SDS011;19094;50.972;3.538;2023-05-18T06:29:56;16.55;;;5.72;;
32705;SDS011;19094;50.972;3.538;2023-05-18T06:32:21;16.38;;;4.97;;
32705;SDS011;19094;50.972;3.538;2023-05-18T06:34:47;13.43;;;5.20;;
32705;SDS011;19094;50.972;3.538;2023-05-18T06:37:14;20.40;;;6.28;;
32705;SDS011;19094;50.972;3.538;2023-05-18T06:39:41;12.77;;;5.15;;
32705;SDS011;19094;50.972;3.538;2023-05-18T06:42:06;16.70;;;5.55;;
32705;SDS011;19094;50.972;3.538;2023-05-18T06:44:32;14.50;;;4.85;;
32705;SDS011;19094;50.972;3.538;2023-05-18T06:46:59;14.15;;;5.43;;
32705;SDS011;19094;50.972;3.538;2023-05-18T06:49:25;15.25;;;5.50;;
32705;SDS011;19094;50.972;3.538;2023-05-18T06:51:51;13.55;;;5.47;;
32705;SDS011;19094;50.972;3.538;2023-05-18T06:54:16;20.20;;;5.45;;
32705;SDS011;19094;50.972;3.538;2023-05-18T06:56:42;11.68;;;4.97;;
32705;SDS011;19094;50.972;3.538;2023-05-18T06:59:08;24.08;;;6.50;;
32705;SDS011;19094;50.972;3.538;2023-05-18T07:01:33;16.15;;;6.40;;
32705;SDS011;19094;50.972;3.538;2023-05-18T07:03:59;15.45;;;5.20;;
32705;SDS011;19094;50.972;3.538;2023-05-18T07:06:26;16.02;;;5.68;;
32705;SDS011;19094;50.972;3.538;2023-05-18T07:08:52;19.30;;;5.80;;
32705;SDS011;19094;50.972;3.538;2023-05-18T07:11:18;12.02;;;5.07;;
32705;SDS011;19094;50.972;3.538;2023-05-18T07:13:43;20.20;;;6.40;;
32705;SDS011;19094;50.972;3.538;2023-05-18T07:16:09;17.15;;;5.88;;
32705;SDS011;19094;50.972;3.538;2023-05-18T07:18:35;21.42;;;5.90;;
32705;SDS011;19094;50.972;3.538;2023-05-18T07:21:00;16.63;;;6.38;;
32705;SDS011;19094;50.972;3.538;2023-05-18T07:23:26;18.10;;;5.53;;
32705;SDS011;19094;50.972;3.538;2023-05-18T07:25:52;19.70;;;6.72;;
32705;SDS011;19094;50.972;3.538;2023-05-18T07:28:18;18.13;;;5.85;;
32705;SDS011;19094;50.972;3.538;2023-05-18T07:30:43;19.25;;;6.28;;
32705;SDS011;19094;50.972;3.538;2023-05-18T07:33:09;14.40;;;6.07;;
32705;SDS011;19094;50.972;3.538;2023-05-18T07:35:35;18.55;;;6.22;;
32705;SDS011;19094;50.972;3.538;2023-05-18T07:38:00;22.10;;;5.82;;
32705;SDS011;19094;50.972;3.538;2023-05-18T07:40:26;16.13;;;6.10;;
32705;SDS011;19094;50.972;3.538;2023-05-18T07:42:52;17.80;;;6.70;;
32705;SDS011;19094;50.972;3.538;2023-05-18T07:45:17;19.95;;;5.90;;
32705;SDS011;19094;50.972;3.538;2023-05-18T07:47:43;17.90;;;6.32;;
32705;SDS011;19094;50.972;3.538;2023-05-18T07:50:09;17.95;;;5.85;;
32705;SDS011;19094;50.972;3.538;2023-05-18T07:52:35;19.73;;;5.65;;
32705;SDS011;19094;50.972;3.538;2023-05-18T07:55:01;19.67;;;7.10;;
32705;SDS011;19094;50.972;3.538;2023-05-18T07:57:27;16.33;;;6.28;;
32705;SDS011;19094;50.972;3.538;2023-05-18T07:59:54;15.57;;;5.72;;
32705;SDS011;19094;50.972;3.538;2023-05-18T08:02:20;21.27;;;6.45;;
32705;SDS011;19094;50.972;3.538;2023-05-18T08:04:46;16.80;;;6.30;;
32705;SDS011;19094;50.972;3.538;2023-05-18T08:07:12;18.88;;;6.68;;
32705;SDS011;19094;50.972;3.538;2023-05-18T08:09:38;18.85;;;6.40;;
32705;SDS011;19094;50.972;3.538;2023-05-18T08:12:04;16.90;;;6.75;;
32705;SDS011;19094;50.972;3.538;2023-05-18T08:14:30;20.33;;;7.15;;
32705;SDS011;19094;50.972;3.538;2023-05-18T08:16:55;19.20;;;6.60;;
32705;SDS011;19094;50.972;3.538;2023-05-18T08:19:21;23.20;;;7.28;;
32705;SDS011;19094;50.972;3.538;2023-05-18T08:21:47;23.42;;;7.68;;
32705;SDS011;19094;50.972;3.538;2023-05-18T08:24:12;21.65;;;8.18;;
32705;SDS011;19094;50.972;3.538;2023-05-18T08:26:38;24.88;;;9.07;;
32705;SDS011;19094;50.972;3.538;2023-05-18T08:29:04;25.75;;;10.38;;
32705;SDS011;19094;50.972;3.538;2023-05-18T08:31:37;20.92;;;8.30;;
32705;SDS011;19094;50.972;3.538;2023-05-18T08:34:06;25.45;;;8.70;;
32705;SDS011;19094;50.972;3.538;2023-05-18T08:36:35;24.77;;;9.63;;
32705;SDS011;19094;50.972;3.538;2023-05-18T08:39:01;27.73;;;9.32;;
32705;SDS011;19094;50.972;3.538;2023-05-18T08:44:02;38.53;;;17.60;;
32705;SDS011;19094;50.972;3.538;2023-05-18T08:46:34;37.25;;;16.63;;
32705;SDS011;19094;50.972;3.538;2023-05-18T08:49:04;32.90;;;16.20;;
32705;SDS011;19094;50.972;3.538;2023-05-18T08:51:32;37.63;;;15.68;;
32705;SDS011;19094;50.972;3.538;2023-05-18T08:53:59;41.03;;;18.25;;
32705;SDS011;19094;50.972;3.538;2023-05-18T08:56:26;41.88;;;17.67;;
32705;SDS011;19094;50.972;3.538;2023-05-18T08:58:55;43.45;;;21.70;;
32705;SDS011;19094;50.972;3.538;2023-05-18T09:01:25;51.85;;;20.83;;
32705;SDS011;19094;50.972;3.538;2023-05-18T09:03:55;49.03;;;20.45;;
32705;SDS011;19094;50.972;3.538;2023-05-18T09:06:22;42.28;;;19.80;;
32705;SDS011;19094;50.972;3.538;2023-05-18T09:08:53;46.85;;;18.55;;
32705;SDS011;19094;50.972;3.538;2023-05-18T09:11:21;39.60;;;19.25;;
32705;SDS011;19094;50.972;3.538;2023-05-18T09:13:49;51.53;;;21.70;;
32705;SDS011;19094;50.972;3.538;2023-05-18T09:16:15;37.33;;;15.95;;
32705;SDS011;19094;50.972;3.538;2023-05-18T09:18:41;38.45;;;17.05;;
32705;SDS011;19094;50.972;3.538;2023-05-18T09:21:07;32.55;;;14.50;;
32705;SDS011;19094;50.972;3.538;2023-05-18T09:23:33;36.97;;;14.50;;
32705;SDS011;19094;50.972;3.538;2023-05-18T09:25:59;35.50;;;14.75;;
32705;SDS011;19094;50.972;3.538;2023-05-18T09:28:26;37.35;;;16.77;;
32705;SDS011;19094;50.972;3.538;2023-05-18T09:31:06;40.47;;;17.98;;
32705;SDS011;19094;50.972;3.538;2023-05-18T09:33:36;39.83;;;16.23;;
32705;SDS011;19094;50.972;3.538;2023-05-18T09:36:03;40.38;;;16.50;;
32705;SDS011;19094;50.972;3.538;2023-05-18T09:38:35;44.65;;;17.27;;
32705;SDS011;19094;50.972;3.538;2023-05-18T09:41:01;32.90;;;13.95;;
32705;SDS011;19094;50.972;3.538;2023-05-18T09:43:27;32.17;;;13.40;;
32705;SDS011;19094;50.972;3.538;2023-05-18T09:45:53;30.55;;;12.80;;
32705;SDS011;19094;50.972;3.538;2023-05-18T09:48:18;33.38;;;14.02;;
32705;SDS011;19094;50.972;3.538;2023-05-18T09:50:44;37.08;;;14.68;;
32705;SDS011;19094;50.972;3.538;2023-05-18T09:53:11;41.58;;;14.40;;
32705;SDS011;19094;50.972;3.538;2023-05-18T09:55:43;22.23;;;9.40;;
32705;SDS011;19094;50.972;3.538;2023-05-18T09:58:13;24.83;;;8.68;;
32705;SDS011;19094;50.972;3.538;2023-05-18T10:00:40;28.17;;;11.15;;
32705;SDS011;19094;50.972;3.538;2023-05-18T10:03:17;29.38;;;11.93;;
32705;SDS011;19094;50.972;3.538;2023-05-18T10:05:45;21.40;;;8.35;;
32705;SDS011;19094;50.972;3.538;2023-05-18T10:08:12;24.02;;;10.68;;
32705;SDS011;19094;50.972;3.538;2023-05-18T10:10:39;29.73;;;12.30;;
32705;SDS011;19094;50.972;3.538;2023-05-18T10:13:08;28.80;;;9.52;;
32705;SDS011;19094;50.972;3.538;2023-05-18T10:15:44;22.08;;;9.18;;
32705;SDS011;19094;50.972;3.538;2023-05-18T10:18:19;26.73;;;10.18;;
32705;SDS011;19094;50.972;3.538;2023-05-18T10:20:56;25.52;;;10.68;;
32705;SDS011;19094;50.972;3.538;2023-05-18T10:23:24;25.20;;;9.75;;
32705;SDS011;19094;50.972;3.538;2023-05-18T10:25:51;26.08;;;8.52;;
32705;SDS011;19094;50.972;3.538;2023-05-18T10:28:19;17.48;;;7.35;;
32705;SDS011;19094;50.972;3.538;2023-05-18T10:30:50;25.77;;;7.75;;
32705;SDS011;19094;50.972;3.538;2023-05-18T10:33:18;23.38;;;8.50;;
32705;SDS011;19094;50.972;3.538;2023-05-18T10:35:46;24.10;;;8.45;;
32705;SDS011;19094;50.972;3.538;2023-05-18T10:38:24;21.13;;;8.40;;
32705;SDS011;19094;50.972;3.538;2023-05-18T10:40:52;21.80;;;6.85;;
32705;SDS011;19094;50.972;3.538;2023-05-18T10:43:20;20.33;;;8.20;;
32705;SDS011;19094;50.972;3.538;2023-05-18T10:45:57;21.52;;;7.85;;
32705;SDS011;19094;50.972;3.538;2023-05-18T10:48:24;26.15;;;7.53;;
32705;SDS011;19094;50.972;3.538;2023-05-18T10:50:52;21.38;;;7.70;;
32705;SDS011;19094;50.972;3.538;2023-05-18T10:53:20;17.02;;;6.07;;
32705;SDS011;19094;50.972;3.538;2023-05-18T10:55:48;18.10;;;5.18;;
32705;SDS011;19094;50.972;3.538;2023-05-18T10:58:16;15.00;;;5.30;;
32705;SDS011;19094;50.972;3.538;2023-05-18T11:00:45;20.83;;;5.28;;
32705;SDS011;19094;50.972;3.538;2023-05-18T11:03:14;19.67;;;5.97;;
32705;SDS011;19094;50.972;3.538;2023-05-18T11:05:40;16.15;;;5.70;;
32705;SDS011;19094;50.972;3.538;2023-05-18T11:08:07;24.60;;;6.53;;
32705;SDS011;19094;50.972;3.538;2023-05-18T11:10:34;16.27;;;6.38;;
32705;SDS011;19094;50.972;3.538;2023-05-18T11:13:11;17.92;;;6.00;;
32705;SDS011;19094;50.972;3.538;2023-05-18T11:18:20;16.77;;;6.72;;
32705;SDS011;19094;50.972;3.538;2023-05-18T11:20:58;21.88;;;6.90;;
32705;SDS011;19094;50.972;3.538;2023-05-18T11:23:23;21.20;;;6.28;;
32705;SDS011;19094;50.972;3.538;2023-05-18T11:25:50;17.92;;;5.90;;
32705;SDS011;19094;50.972;3.538;2023-05-18T11:28:16;17.45;;;5.10;;
32705;SDS011;19094;50.972;3.538;2023-05-18T11:30:47;19.33;;;5.63;;
32705;SDS011;19094;50.972;3.538;2023-05-18T11:33:21;18.00;;;6.30;;
32705;SDS011;19094;50.972;3.538;2023-05-18T11:38:53;22.92;;;5.50;;
32705;SDS011;19094;50.972;3.538;2023-05-18T11:41:36;19.73;;;6.47;;
32705;SDS011;19094;50.972;3.538;2023-05-18T11:46:37;21.30;;;5.80;;
32705;SDS011;19094;50.972;3.538;2023-05-18T11:49:15;16.95;;;5.43;;
32705;SDS011;19094;50.972;3.538;2023-05-18T11:54:38;17.65;;;5.80;;
32705;SDS011;19094;50.972;3.538;2023-05-18T11:57:09;19.17;;;6.68;;
32705;SDS011;19094;50.972;3.538;2023-05-18T11:59:36;25.08;;;6.95;;
32705;SDS011;19094;50.972;3.538;2023-05-18T12:02:05;15.68;;;6.35;;
32705;SDS011;19094;50.972;3.538;2023-05-18T12:04:31;17.63;;;6.32;;
32705;SDS011;19094;50.972;3.538;2023-05-18T12:06:58;17.30;;;5.90;;
32705;SDS011;19094;50.972;3.538;2023-05-18T12:09:29;18.17;;;6.90;;
32705;SDS011;19094;50.972;3.538;2023-05-18T12:11:55;23.10;;;6.93;;
32705;SDS011;19094;50.972;3.538;2023-05-18T12:14:21;16.38;;;6.75;;
32705;SDS011;19094;50.972;3.538;2023-05-18T12:16:47;16.70;;;6.75;;
32705;SDS011;19094;50.972;3.538;2023-05-18T12:19:13;17.98;;;6.63;;
32705;SDS011;19094;50.972;3.538;2023-05-18T12:21:40;21.13;;;6.90;;
32705;SDS011;19094;50.972;3.538;2023-05-18T12:24:06;14.55;;;6.70;;
32705;SDS011;19094;50.972;3.538;2023-05-18T12:26:32;21.73;;;8.07;;
32705;SDS011;19094;50.972;3.538;2023-05-18T12:29:00;23.00;;;7.28;;
32705;SDS011;19094;50.972;3.538;2023-05-18T12:31:26;19.13;;;7.15;;
32705;SDS011;19094;50.972;3.538;2023-05-18T12:33:52;17.05;;;6.97;;
32705;SDS011;19094;50.972;3.538;2023-05-18T12:36:18;15.10;;;6.90;;
32705;SDS011;19094;50.972;3.538;2023-05-18T12:38:48;14.73;;;7.05;;
32705;SDS011;19094;50.972;3.538;2023-05-18T12:41:25;17.02;;;7.18;;
32705;SDS011;19094;50.972;3.538;2023-05-18T12:43:51;18.90;;;7.68;;
32705;SDS011;19094;50.972;3.538;2023-05-18T12:46:21;16.77;;;6.35;;
32705;SDS011;19094;50.972;3.538;2023-05-18T12:48:55;19.75;;;6.63;;
32705;SDS011;19094;50.972;3.538;2023-05-18T12:51:22;16.42;;;6.63;;
32705;SDS011;19094;50.972;3.538;2023-05-18T12:53:54;15.98;;;7.35;;
32705;SDS011;19094;50.972;3.538;2023-05-18T12:56:21;16.52;;;7.75;;
32705;SDS011;19094;50.972;3.538;2023-05-18T12:58:55;20.60;;;7.75;;
32705;SDS011;19094;50.972;3.538;2023-05-18T13:01:27;18.60;;;7.47;;
32705;SDS011;19094;50.972;3.538;2023-05-18T13:03:56;19.42;;;7.47;;
32705;SDS011;19094;50.972;3.538;2023-05-18T13:06:22;13.63;;;7.20;;
32705;SDS011;19094;50.972;3.538;2023-05-18T13:08:51;17.92;;;7.25;;
32705;SDS011;19094;50.972;3.538;2023-05-18T13:11:22;13.98;;;6.78;;
32705;SDS011;19094;50.972;3.538;2023-05-18T13:13:56;20.23;;;7.70;;
32705;SDS011;19094;50.972;3.538;2023-05-18T13:16:22;18.17;;;7.47;;
32705;SDS011;19094;50.972;3.538;2023-05-18T13:18:54;16.40;;;7.10;;
32705;SDS011;19094;50.972;3.538;2023-05-18T13:21:20;21.77;;;7.68;;
32705;SDS011;19094;50.972;3.538;2023-05-18T13:23:46;21.67;;;7.97;;
32705;SDS011;19094;50.972;3.538;2023-05-18T13:26:11;19.00;;;7.70;;
32705;SDS011;19094;50.972;3.538;2023-05-18T13:28:38;23.85;;;7.97;;
32705;SDS011;19094;50.972;3.538;2023-05-18T13:31:03;21.92;;;7.45;;
32705;SDS011;19094;50.972;3.538;2023-05-18T13:33:29;24.75;;;7.47;;
32705;SDS011;19094;50.972;3.538;2023-05-18T13:35:55;16.65;;;7.47;;
32705;SDS011;19094;50.972;3.538;2023-05-18T13:38:20;21.02;;;8.05;;
32705;SDS011;19094;50.972;3.538;2023-05-18T13:40:46;21.85;;;7.75;;
32705;SDS011;19094;50.972;3.538;2023-05-18T13:43:12;19.65;;;7.70;;
32705;SDS011;19094;50.972;3.538;2023-05-18T13:45:37;19.45;;;7.85;;
32705;SDS011;19094;50.972;3.538;2023-05-18T13:48:03;19.92;;;8.57;;
32705;SDS011;19094;50.972;3.538;2023-05-18T13:50:31;18.75;;;7.93;;
32705;SDS011;19094;50.972;3.538;2023-05-18T13:52:57;18.27;;;7.43;;
32705;SDS011;19094;50.972;3.538;2023-05-18T13:55:22;21.45;;;8.85;;
32705;SDS011;19094;50.972;3.538;2023-05-18T13:57:48;17.75;;;6.80;;
32705;SDS011;19094;50.972;3.538;2023-05-18T14:00:14;21.05;;;8.40;;
32705;SDS011;19094;50.972;3.538;2023-05-18T14:02:44;22.40;;;7.72;;
32705;SDS011;19094;50.972;3.538;2023-05-18T14:05:11;19.20;;;7.85;;
32705;SDS011;19094;50.972;3.538;2023-05-18T14:07:38;19.20;;;7.93;;
32705;SDS011;19094;50.972;3.538;2023-05-18T14:10:06;22.05;;;7.53;;
32705;SDS011;19094;50.972;3.538;2023-05-18T14:12:33;23.25;;;7.57;;
32705;SDS011;19094;50.972;3.538;2023-05-18T14:14:59;21.55;;;8.05;;
32705;SDS011;19094;50.972;3.538;2023-05-18T14:17:25;16.15;;;7.32;;
32705;SDS011;19094;50.972;3.538;2023-05-18T14:19:53;21.88;;;7.82;;
32705;SDS011;19094;50.972;3.538;2023-05-18T14:22:19;17.77;;;8.23;;
32705;SDS011;19094;50.972;3.538;2023-05-18T14:24:46;14.25;;;7.88;;
32705;SDS011;19094;50.972;3.538;2023-05-18T14:27:12;26.52;;;8.88;;
32705;SDS011;19094;50.972;3.538;2023-05-18T14:29:37;18.95;;;8.52;;
32705;SDS011;19094;50.972;3.538;2023-05-18T14:32:03;16.23;;;8.10;;
32705;SDS011;19094;50.972;3.538;2023-05-18T14:34:29;22.30;;;8.75;;
32705;SDS011;19094;50.972;3.538;2023-05-18T14:36:55;20.00;;;8.13;;
32705;SDS011;19094;50.972;3.538;2023-05-18T14:39:20;21.75;;;8.95;;
32705;SDS011;19094;50.972;3.538;2023-05-18T14:41:46;22.42;;;9.02;;
32705;SDS011;19094;50.972;3.538;2023-05-18T14:44:12;18.63;;;7.80;;
32705;SDS011;19094;50.972;3.538;2023-05-18T14:46:37;22.92;;;9.30;;
32705;SDS011;19094;50.972;3.538;2023-05-18T14:49:04;17.27;;;8.50;;
32705;SDS011;19094;50.972;3.538;2023-05-18T14:51:29;19.45;;;7.45;;
32705;SDS011;19094;50.972;3.538;2023-05-18T14:53:55;20.95;;;8.38;;
32705;SDS011;19094;50.972;3.538;2023-05-18T14:56:21;28.00;;;9.30;;